Weather observations for the past three days for
Willoughby
Metric (Imperial)
Date Time (edt) Wind (kph) Vis. (km) Weather Sky Cond. Temperature (ºC) Relative Humidity Wind Chill (°C) Heat Index (°C) Pressure Precipitation (cm)
Air Dwpt 6 hour altimeter (cm) sea level (mb) 1 hr 3 hr 6 hr
Max. Min.
06 02:35 Calm 16.09 Overcast OVC037 8 6.8 92% 75.62 0.0
06 02:15 Calm 11.27 Overcast BKN037 BKN046 OVC080 8 6.8 92% 75.62 0.0
06 01:55 Calm 11.27 Overcast SCT037 SCT046 OVC080 8 6.7 9.3 8 92% 75.62 0.0
06 01:35 Calm 11.27 Overcast SCT037 OVC044 8.1 6.9 92% 75.62 0.0
06 01:15 Calm 16.09 Overcast OVC039 8.2 7 92% 75.67 0.0
06 00:55 Calm 16.09 Overcast OVC037 8.1 7 93% 75.67 0.0
06 00:35 Calm 16.09 Overcast SCT010 SCT021 OVC037 8.3 7.1 92% 75.69 0.0
06 00:15 NW 6 11.27 Overcast SCT006 BKN010 OVC035 8.5 7.2 92% 75.72 0.0
05 23:55 Calm 8.05 Overcast SCT007 BKN014 OVC033 8.8 7.6 92% 75.72 0.0
05 23:35 Calm 6.44 Overcast SCT003 BKN015 OVC033 9 7.7 92% 75.72 0.0
05 23:15 NW 6 4.83 Overcast OVC003 9 7.7 92% 75.72 0.0
05 22:55 N 6 6.44 Overcast BKN003 BKN009 OVC024 9 7.7 92% 75.69 0.0
05 22:35 Calm 6.44 Overcast BKN003 BKN011 OVC037 9 7.7 92% 75.69 0.0
05 22:15 NW 6 4.83 Overcast OVC003 9 7.8 92% 75.69 0.0
05 21:55 NW 6 6.44 Overcast BKN005 OVC015 9.2 8 92% 75.69 0.0
05 21:35 Calm 8.05 Overcast BKN005 BKN015 OVC029 9.3 8.1 92% 75.67 0.0
05 21:15 Calm 6.44 Overcast BKN005 BKN017 OVC029 9.2 8 92% 75.67 0.0
05 20:55 Calm 8.05 Overcast OVC003 9.2 8 92% 75.67 0.0
05 20:35 Calm 11.27 Overcast OVC003 9.1 7.9 92% 75.64 0.0
05 20:15 Calm 11.27 Overcast SCT003 BKN048 OVC080 9 7.8 92% 75.62 0.0
05 19:55 Calm 8.05 Overcast BKN005 BKN032 OVC050 9 7.8 13.8 9 92% 75.64 0.0
05 19:35 W 6 6.44 Overcast BKN005 OVC034 9.3 8.1 92% 75.67 0.0
05 19:15 Calm 3.22 Overcast OVC005 9.1 8 93% 75.64 0.0
05 18:55 Calm 4.83 Overcast BKN007 OVC018 9.1 8 93% 75.67 0.0
05 18:35 Calm 4.02 Overcast SCT007 SCT011 OVC016 9.1 8 93% 75.67 0.0
05 18:15 Calm 6.44 Overcast BKN009 OVC016 9.1 7.9 92% 75.67 0.0
05 17:55 W 6 4.83 Overcast SCT009 OVC014 9.4 8.1 92% 75.64 0.0
05 17:35 W 7 8.05 Overcast OVC014 9.5 8.2 92% 9 75.64 0.0
05 17:15 NW 13 6.44 Overcast OVC012 9.6 8.5 93% 8 75.64 0.0
05 16:55 NW 11 8.05 Overcast OVC010 10 8.7 92% 9 75.64 0.0
05 16:35 W 17 4.02 Overcast OVC007 10.5 9.2 92% 75.62 0.0
05 16:15 W 6 3.22 Overcast OVC007 11 9.8 92% 75.59 0.0
05 15:55 W 13 2.82 Overcast SCT009 BKN035 OVC044 11.3 10.1 92% 75.62 0.0
05 15:35 W 13 4.02 Overcast BKN042 OVC050 11.9 10.6 92% 75.62 0.0
05 15:15 W 15 11.27 Overcast OVC042 12.5 10.6 88% 75.59 0.0
05 14:55 W 17 16.09 Overcast OVC036 13.1 10.3 83% 75.59 0.0
05 14:35 W 17 16.09 Overcast BKN036 OVC043 13.8 9.6 76% 75.59 0.0
05 14:15 W 19 G 26 16.09 Overcast SCT037 OVC044 13.5 10.4 82% 75.59 0.0
05 13:55 W 15 16.09 Overcast BKN039 OVC049 13.7 10.5 19.5 13.7 81% 75.59 0.0
05 13:35 W 17 G 26 16.09 Overcast BKN041 OVC048 13.8 10.1 79% 75.57 0.0
05 13:15 W 19 16.09 Overcast OVC045 14 9.8 76% 75.57 0.0
05 12:55 W 24 G 33 16.09 Overcast BKN048 OVC055 14.5 9.2 71% 75.54 0.0
05 12:35 W 20 G 35 16.09 Mostly Cloudy SCT047 BKN055 15.6 9.2 66% 75.54 0.0
05 12:15 W 28 G 41 16.09 Partly Cloudy SCT048 17 8.7 58% 75.54 0.0
05 11:35 W 28 G 35 16.09 Fair CLR 18.5 8.5 52% 75.49 0.0
05 11:15 W 22 16.09 Partly Cloudy SCT043 18.6 8.5 52% 75.44 0.0
05 10:55 W 26 G 39 16.09 Overcast OVC043 18.3 8.4 53% 75.49 0.0
05 10:35 W 33 G 46 16.09 Mostly Cloudy and Breezy BKN039 18.2 7.7 51% 75.46 0.0
05 10:15 SW 31 G 50 16.09 Partly Cloudy SCT039 19.2 7.9 48% 75.41 0.0
05 09:55 SW 31 G 43 16.09 Fair CLR 19.1 8.2 49% 75.41 0.0
05 09:35 SW 22 G 39 16.09 Fair CLR 18.3 8.3 52% 75.41 0.0
05 09:15 SW 30 G 44 16.09 Fair CLR 17.5 7.9 54% 75.39 0.0
05 08:55 SW 33 G 44 16.09 Fair and Breezy CLR 17.5 7.4 52% 75.41 0.0
05 08:35 SW 26 G 37 16.09 Fair CLR 17.6 7 50% 75.36 0.0
05 08:15 SW 26 G 41 16.09 Fair CLR 18 6.5 47% 75.34 0.0
05 07:55 SW 24 G 39 16.09 Partly Cloudy SCT090 18.2 6.4 20.5 17 46% 75.31 0.0
05 07:35 SW 30 G 46 16.09 Partly Cloudy SCT080 18.3 6.3 46% 75.31 0.0
05 07:15 SW 22 G 44 16.09 Partly Cloudy SCT090 SCT110 18.5 6.1 44% 75.31 0.0
05 06:55 SW 33 G 44 16.09 Mostly Cloudy and Breezy SCT090 BKN110 18.4 6.9 47% 75.29 0.0
05 06:35 SW 31 G 43 16.09 Mostly Cloudy SCT080 BKN110 18.7 6.7 46% 75.26 0.0
05 06:15 SW 33 G 54 16.09 Mostly Cloudy and Breezy BKN100 19 7 46% 75.26 0.0
05 05:55 SW 28 G 44 16.09 Overcast OVC100 19.2 6.7 44% 75.23 0.0
05 05:35 SW 24 G 39 16.09 Mostly Cloudy BKN100 19.2 6.6 44% 75.21 0.0
05 05:15 SW 24 G 41 16.09 Mostly Cloudy BKN100 19.3 6.7 44% 75.18 0.0
05 04:55 SW 26 G 37 16.09 Partly Cloudy SCT090 19.1 7 46% 75.18 0.0
05 04:35 W 13 16.09 Partly Cloudy SCT065 SCT100 17.1 7.6 54% 75.18 0.0
05 04:15 SW 20 G 37 16.09 Partly Cloudy SCT065 SCT090 19.2 7 45% 75.18 0.0
05 03:55 SW 22 G 35 16.09 Mostly Cloudy SCT065 BKN090 19.6 6.9 44% 75.16 0.0
05 03:35 SW 20 G 37 16.09 Mostly Cloudy SCT070 SCT090 BKN120 20 6.5 42% 75.16 0.0
05 03:15 SW 31 G 41 16.09 Mostly Cloudy SCT075 SCT090 BKN120 20.1 6.7 42% 75.16 0.0
05 02:55 SW 20 G 39 16.09 Overcast OVC090 20.1 6.9 42% 75.13 0.0
05 02:35 SW 24 G 39 16.09 Overcast OVC090 20.2 7.1 43% 75.16 0.0
05 02:15 SW 30 G 44 16.09 Mostly Cloudy BKN090 BKN100 20.4 6.7 41% 75.16 0.0
05 01:55 SW 26 G 41 16.09 Overcast SCT050 OVC100 20 7.2 21.6 18.8 44% 75.18 0.0
05 01:35 SW 19 G 31 16.09 Overcast OVC090 19 7.9 49% 75.23 0.0
05 01:15 S 19 G 33 16.09 Overcast OVC090 18.8 8 50% 75.23 0.0
05 00:55 SW 24 16.09 Overcast BKN080 OVC100 18.8 8.1 50% 75.23 0.0
05 00:35 S 17 G 35 16.09 Overcast OVC090 19.6 7.1 44% 75.23 0.0
05 00:15 S 22 G 35 16.09 Mostly Cloudy BKN090 BKN120 19.5 7.3 45% 75.26 0.0
04 23:55 SW 26 G 33 16.09 Mostly Cloudy BKN100 BKN120 19.5 7.2 45% 75.26 0.0
04 23:35 S 20 G 35 16.09 Mostly Cloudy BKN100 19.6 7.1 44% 75.29 0.0
04 23:15 S 22 G 35 16.09 Mostly Cloudy BKN090 BKN120 19.7 6.9 44% 75.29 0.0
04 22:55 S 20 G 30 16.09 Overcast OVC100 19.7 6.5 42% 75.26 0.0
04 22:35 SW 19 G 33 16.09 Overcast SCT070 OVC100 20.1 6 40% 75.26 0.0
04 22:15 S 19 G 26 16.09 Partly Cloudy SCT075 20.2 6 40% 75.29 0.0
04 21:55 S 20 G 28 16.09 Partly Cloudy SCT120 20.5 5.9 39% 75.26 0.0
04 21:35 SW 19 G 30 16.09 Mostly Cloudy SCT090 BKN110 20.9 5.5 37% 75.26 0.0
04 21:15 SW 19 G 41 16.09 Fair CLR 21.2 5.1 35% 75.23 0.0
04 20:55 SW 22 G 43 16.09 Fair CLR 21.3 5.3 35% 75.21 0.0
04 20:35 SW 20 G 37 16.09 Fair CLR 21.5 5.6 36% 75.18 0.0
04 20:15 SW 22 G 35 16.09 Fair CLR 21.5 6.2 37% 75.21 0.0
04 19:55 SW 15 G 31 16.09 Partly Cloudy SCT100 21.4 7.1 23.6 20.6 40% 75.18 0.0
04 19:35 S 11 16.09 Fair CLR 21.3 8 43% 75.16 0.0
04 19:15 S 13 16.09 Partly Cloudy SCT075 21 8.1 44% 75.16 0.0
04 18:55 S 19 G 28 16.09 Mostly Cloudy SCT065 SCT075 BKN100 21 7.2 41% 75.21 0.0
04 18:35 SW 33 G 44 16.09 Overcast and Breezy BKN080 OVC090 22.1 6.4 36% 75.21 0.0
04 18:15 SW 24 G 48 16.09 Overcast BKN065 OVC080 22.3 6 35% 75.23 0.0
04 17:55 SW 20 G 31 16.09 Overcast BKN070 BKN075 OVC090 22.5 5.4 33% 75.23 0.0
04 17:35 SW 24 G 35 16.09 Mostly Cloudy SCT070 BKN090 23.4 5 30% 75.23 0.0
04 17:15 SW 26 G 43 16.09 Partly Cloudy SCT070 SCT090 23 3.7 28% 75.23 0.0
04 16:55 SW 22 G 41 16.09 Fair CLR 23.4 2.9 26% 75.26 0.0
04 16:35 SW 26 G 39 16.09 Partly Cloudy SCT065 23.4 2.2 25% 75.26 0.0
04 16:15 SW 31 G 44 16.09 Partly Cloudy SCT065 22.8 3 27% 75.29 0.0
04 15:55 SW 28 G 39 16.09 Partly Cloudy SCT065 22.7 3.8 29% 75.29 0.0
04 15:35 SW 28 G 46 16.09 Fair CLR 22.8 2 26% 75.34 0.0
04 15:15 SW 20 G 35 16.09 Fair CLR 22.6 1.4 25% 75.36 0.0
04 14:55 SW 30 G 43 16.09 Fair CLR 22.7 0.9 24% 75.36 0.0
04 14:35 SW 22 G 37 16.09 Fair CLR 22.7 1.3 24% 75.36 0.0
04 14:15 SW 20 G 35 16.09 Fair CLR 22.2 1.5 26% 75.39 0.0
04 13:55 SW 22 G 35 16.09 Fair CLR 22.2 1.2 22.2 12.5 25% 75.39 0.0
04 13:35 S 17 G 35 16.09 Fair CLR 21.8 1.7 27% 75.41 0.0
04 13:15 SW 22 G 33 16.09 Fair CLR 21.7 2 27% 75.41 0.0
04 12:55 S 19 G 28 16.09 Fair CLR 21.4 3.1 30% 75.41 0.0
04 12:35 S 19 G 31 16.09 Fair CLR 20.5 2.9 31% 75.46 0.0
04 12:15 SW 17 G 31 16.09 Fair CLR 20.1 2.9 32% 75.46 0.0
04 11:55 S 17 G 31 16.09 Fair CLR 19.9 3.5 34% 75.49 0.0
04 11:35 SW 17 16.09 Fair CLR 19.4 3 34% 75.49 0.0
04 11:15 SW 17 16.09 Fair CLR 18.9 3 35% 75.51 0.0
04 10:55 SW 13 16.09 Fair CLR 18.7 3.4 36% 75.51 0.0
04 10:35 S 15 16.09 Fair CLR 17.9 3.2 38% 75.51 0.0
04 10:15 SW 15 16.09 Fair CLR 17.5 3 38% 75.54 0.0
04 09:55 S 15 G 28 16.09 Fair CLR 16.3 2.2 39% 75.57 0.0
04 09:35 S 15 G 30 16.09 Fair CLR 15.2 2 41% 75.57 0.0
04 09:15 S 19 16.09 Partly Cloudy SCT080 15 2 42% 75.59 0.0
04 08:55 SW 22 G 31 16.09 Partly Cloudy SCT080 14.3 1.3 42% 75.59 0.0
04 08:35 SW 24 G 30 16.09 Partly Cloudy SCT080 13.7 1.3 43% 75.59 0.0
04 07:55 S 13 16.09 Mostly Cloudy BKN070 BKN080 12.4 0.8 12.4 10.8 45% 75.59 0.0
04 07:35 S 19 16.09 Mostly Cloudy BKN070 11.7 0.4 46% 75.59 0.0
04 07:15 S 13 16.09 Fair CLR 11.1 0.1 47% 75.57 0.0
04 06:55 S 17 16.09 Fair CLR 11 0 47% 75.57 0.0
04 06:35 S 17 16.09 Fair CLR 11 0 47% 75.57 0.0
04 06:15 S 17 16.09 Fair CLR 10.8 -0.1 47% 75.57 0.0
04 05:55 S 13 16.09 Fair CLR 10.9 -0.2 47% 75.57 0.0
04 05:35 S 13 16.09 Partly Cloudy SCT070 10.9 -0.5 46% 75.57 0.0
04 05:15 S 13 16.09 Mostly Cloudy BKN070 11.1 -0.5 45% 75.59 0.0
04 04:55 S 17 G 28 16.09 Overcast OVC080 11.6 -0.6 43% 75.59 0.0
04 04:35 SW 19 G 28 16.09 Overcast SCT070 OVC080 12 -0.8 41% 75.59 0.0
04 04:15 S 17 G 28 16.09 Mostly Cloudy BKN070 11.7 -1 42% 75.62 0.0
04 03:55 S 17 16.09 Mostly Cloudy BKN070 BKN080 11.5 -1 42% 75.64 0.0
04 03:35 S 15 16.09 Mostly Cloudy SCT070 BKN080 11.4 -1 43% 75.64 0.0
04 03:15 S 15 G 26 16.09 Overcast SCT070 OVC080 11.5 -1.1 42% 75.67 0.0
04 02:55 S 17 G 28 16.09 Overcast BKN070 OVC080 12 -1.3 40% 75.69 0.0
04 02:35 SW 9 16.09 Overcast SCT060 BKN070 OVC080 11.7 -1.1 41% 75.72 0.0
04 02:15 S 13 16.09 Mostly Cloudy SCT070 BKN120 11.5 -1 42% 75.74 0.0
04 01:55 SW 13 16.09 Mostly Cloudy SCT070 BKN120 11.4 -0.9 14.4 10.6 43% 75.77 0.0
04 01:35 SW 17 16.09 Mostly Cloudy BKN120 11.5 -1 42% 75.77 0.0
04 01:15 S 13 16.09 Overcast SCT075 OVC120 11.4 -1.2 42% 75.79 0.0
04 00:55 SW 13 16.09 Overcast SCT075 OVC110 11.4 -1 43% 75.82 0.0
04 00:35 SW 11 16.09 Overcast OVC110 11.5 -0.6 43% 75.82 0.0
04 00:15 S 11 16.09 Overcast SCT085 OVC110 11.9 -1 41% 75.82 0.0
03 23:55 SW 13 16.09 Overcast SCT060 BKN085 OVC110 11.7 -1.1 41% 75.84 0.0
03 23:35 SW 19 16.09 Overcast SCT060 OVC075 11.7 -1.1 41% 75.87 0.0
03 23:15 S 11 16.09 Overcast SCT060 SCT075 OVC100 11.5 -0.8 43% 75.87 0.0
03 22:55 SW 13 16.09 Partly Cloudy SCT100 10.7 2.7 58% 75.9 0.0
03 22:35 SW 22 16.09 Fair CLR 10.7 4.1 64% 75.92 0.0
03 22:15 W 22 16.09 Fair CLR 11.5 2.5 54% 75.92 0.0
03 21:55 SW 15 16.09 Fair CLR 12.4 -4.1 32% 75.87 0.0
03 21:35 SW 17 16.09 Fair CLR 12.6 -4.4 31% 75.87 0.0
03 21:15 SW 26 G 33 16.09 Fair CLR 13.2 -4.7 29% 75.87 0.0
03 20:55 SW 20 G 30 16.09 Partly Cloudy SCT075 12.9 -3.9 31% 75.84 0.0
03 20:35 SW 20 G 30 16.09 Mostly Cloudy BKN075 13.1 -2.8 33% 75.84 0.0
03 20:15 W 26 G 41 16.09 Mostly Cloudy BKN075 14.1 -3.4 30% 75.84 0.0
03 19:55 SW 28 G 43 16.09 Mostly Cloudy BKN075 14.3 -3.6 16.5 14.3 29% 75.84 0.0
03 19:35 W 22 G 35 16.09 Partly Cloudy SCT075 15 -3.5 28% 75.87 0.0
03 19:15 SW 31 G 43 16.09 Fair CLR 15.1 -4.1 27% 75.84 0.0
03 18:55 SW 30 G 39 16.09 Partly Cloudy SCT080 15 -2.9 29% 75.87 0.0
03 18:35 W 30 G 43 16.09 Mostly Cloudy BKN080 15.2 -2.8 29% 75.87 0.0
03 18:15 SW 31 G 41 16.09 Partly Cloudy SCT080 15.8 -2.9 28% 75.87 0.0
03 17:55 W 30 G 43 16.09 Partly Cloudy SCT080 15.7 -2.2 29% 75.9 0.0
03 17:35 W 28 G 41 16.09 Partly Cloudy SCT080 SCT090 15.8 -1.9 30% 75.9 0.0
03 17:15 W 26 G 41 16.09 Partly Cloudy SCT090 16 -2.8 28% 75.87 0.0
03 16:55 W 30 G 46 16.09 Partly Cloudy SCT090 16.2 -3 27% 75.87 0.0
03 16:35 W 30 G 41 16.09 Partly Cloudy SCT090 16.2 -1.8 29% 75.9 0.0
03 16:15 W 26 G 37 16.09 Mostly Cloudy BKN090 16.2 -0.1 33% 75.92 0.0
03 15:55 W 28 G 35 16.09 Partly Cloudy SCT090 14.9 -0.7 35% 75.92 0.0
03 15:35 W 28 G 39 16.09 Partly Cloudy SCT100 15.6 -1.3 32% 75.97 0.0
03 15:15 W 28 G 41 16.09 Partly Cloudy SCT100 15.5 -0.9 33% 75.97 0.0
03 14:55 SW 30 G 39 16.09 Fair CLR 15.4 -0.6 34% 76 0.0
03 14:35 W 24 G 39 16.09 Fair CLR 15.1 -0.5 35% 76.02 0.0
03 14:15 W 22 G 33 16.09 Fair CLR 14.7 0 37% 76.02 0.0
03 13:55 W 24 G 37 16.09 Fair CLR 15.2 -1.7 15.3 4.7 32% 76.05 0.0
03 13:35 W 31 G 43 16.09 Fair CLR 14.7 -2.2 31% 76.07 0.0
03 13:15 W 26 G 41 16.09 Fair CLR 14.6 -1.8 33% 76.07 0.0
03 12:55 SW 28 G 41 16.09 Fair CLR 14.1 -2.5 32% 76.1 0.0
03 12:35 W 35 G 44 16.09 Fair and Breezy CLR 13.8 -3 31% 76.1 0.0
03 12:15 SW 31 G 44 16.09 Fair CLR 13.4 -3.7 31% 76.12 0.0
03 11:55 W 31 G 41 16.09 Fair CLR 13.1 -3.8 31% 76.12 0.0
03 11:35 W 30 G 41 16.09 Fair CLR 12.8 -3.8 32% 76.15 0.0
03 11:15 W 33 G 52 16.09 Fair and Breezy CLR 12.5 -5.4 29% 76.15 0.0
03 10:55 W 31 G 46 16.09 Fair CLR 12.5 -4.6 30% 76.15 0.0
03 10:35 SW 26 G 35 16.09 Fair CLR 11.9 -5.1 30% 76.15 0.0
03 10:15 SW 26 G 35 16.09 Partly Cloudy SCT080 11.1 -6.1 30% 76.17 0.0
03 09:55 SW 20 G 28 16.09 Mostly Cloudy BKN080 10 -7.7 28% 8 76.17 0.0
03 09:35 SW 22 G 33 16.09 Mostly Cloudy SCT070 BKN080 9.4 -7.4 30% 7 76.2 0.0
03 09:15 SW 19 16.09 Mostly Cloudy SCT075 BKN090 9 -6.8 32% 7 76.2 0.0
03 08:55 SW 20 G 30 16.09 Overcast SCT075 OVC100 8.6 -5.7 36% 6 76.2 0.0
03 08:35 SW 15 16.09 Overcast OVC100 6.9 -5.1 42% 4 76.23 0.0
03 08:15 SW 13 16.09 Overcast OVC100 6.4 -3.7 49% 4 76.2 0.0
03 07:55 SW 11 16.09 Overcast OVC090 4.6 -3.1 4.6 1.4 58% 2 76.2 0.0
03 07:35 S 7 16.09 Overcast OVC090 3.5 -2.7 64% 2 76.2 0.0
03 07:15 SW 7 16.09 Overcast OVC090 3 -2.6 67% 1 76.2 0.0
03 06:35 S 7 16.09 Fair CLR 1.6 -3 72% -0 76.17 0.0
03 06:15 SW 7 16.09 Fair CLR 1.5 -2.9 73% -0 76.17 0.0
03 05:55 SW 6 16.09 Fair CLR 1.6 -2.8 73% 76.15 0.0
03 05:35 S 7 16.09 Fair CLR 1.5 -2.5 75% -0 76.17 0.0
03 05:15 S 6 16.09 Fair CLR 1.5 -2.4 76% 76.17 0.0
03 04:55 SW 7 16.09 Fair CLR 1.6 -2.3 76% -0 76.17 0.0
03 04:35 S 7 16.09 Fair CLR 1.6 -2.2 76% -0 76.17 0.0
03 04:15 SW 7 16.09 Fair CLR 1.6 -2.1 77% -0 76.17 0.0
03 03:55 S 6 16.09 Fair CLR 1.6 -2 77% 76.17 0.0
03 03:35 S 6 16.09 Fair CLR 1.7 -1.7 78% 76.17 0.0
03 03:15 SW 6 16.09 Fair CLR 1.8 -1.9 77% 76.17 0.0
03 02:55 S 6 16.09 Fair CLR 2 -2 75% 76.2 0.0
Date Time (edt) Wind (kph) Vis. (km) Weather Sky Cond. Air Dwpt Max. Min. Relative Humidity Wind Chill (°C) Heat Index (°C) altimeter (cm) sea level (mb) 1 hr 3 hr 6 hr
6 hour
Temperature (ºC) Pressure Precipitation (cm)